• Join FlightAware (Why Join?)
  • Login
  • US Flag 
01:19PM EDT


 

Airport Tracker/Info


-or-


 

Live Flight TrackerFlight Track Log ✈ N143DE ✈ 26-Jun-2013 ✈ KRYY - KMQY

Flight Track Log - Related Links

Times and Time Zones

All times are in EDT time to prevent confusion due to time zone crossing. See the N143DE flight status page for this flight to view local times or setup timezone preferences in your user account.

Time Position Orientation Groundspeed Altitude Reporting Facility
EDT Latitude Longitude Course Direction KTS MPH feet Rate Location/Type
08:36AM 34.0167 -84.6333 North 146 168 2,600  Level Atlanta TRACON
08:38AM 34.1164 -84.6308 North 202 232 4,100 900 Climbing Atlanta Center
08:39AM 34.1706 -84.6289 North 202 232 5,200 1,260 Climbing Atlanta Center
08:40AM 34.2228 -84.6517 340° North 190 219 6,700 1,440 Climbing Atlanta Center
08:41AM 34.2706 -84.6797 334° Northwest 190 219 8,100 1,500 Climbing Atlanta Center
08:42AM 34.3206 -84.7153 330° Northwest 201 231 9,800 1,560 Climbing Atlanta Center
08:43AM 34.3683 -84.7483 330° Northwest 201 231 11,300 1,320 Climbing Atlanta Center
08:44AM 34.4203 -84.7842 330° Northwest 206 237 12,500 1,140 Climbing Atlanta Center
08:45AM 34.4722 -84.8197 331° Northwest 206 237 13,600 720 Climbing Atlanta Center
08:46AM 34.5261 -84.8558 331° Northwest 206 237 14,000 180 Climbing Atlanta Center
08:47AM 34.5886 -84.8967 332° Northwest 230 265 14,000  Level Atlanta Center
08:48AM 34.6489 -84.9378 331° Northwest 243 280 14,000  Level Atlanta Center
08:49AM 34.7131 -84.9814 331° Northwest 248 285 14,000  Level Atlanta Center
08:50AM 34.7753 -85.0250 330° Northwest 248 285 14,000  Level Atlanta Center
08:52AM 34.8897 -85.1039 331° Northwest 260 299 14,000  Level Memphis Center
08:53AM 34.9542 -85.1481 331° Northwest 265 305 14,000  Level Memphis Center
08:54AM 35.0047 -85.2083 316° Northwest 259 298 14,000  Level Memphis Center
08:55AM 35.0575 -85.2711 316° Northwest 252 290 14,000  Level Memphis Center
08:56AM 35.1017 -85.3344 310° West 257 296 14,000  Level Memphis Center
08:57AM 35.1542 -85.3972 316° Northwest 257 296 14,000 -60 Level Memphis Center
08:58AM 35.2028 -85.4603 313° West 257 296 13,900 -540 Descending Memphis Center
08:59AM 35.2228 -85.5481 286° West 251 289 13,000 -840 Descending Memphis Center
09:00AM 35.2325 -85.6392 277° West 259 298 12,300 -840 Descending Memphis Center
09:01AM 35.2464 -85.7272 281° West 264 304 11,400 -660 Descending Memphis Center
09:02AM 35.2581 -85.8156 279° West 264 304 11,000 -240 Descending Memphis Center
09:03AM 35.2917 -85.8825 302° West 236 272 11,000  Level Memphis Center
09:04AM 35.3536 -85.9225 332° Northwest 231 266 11,000  Level Memphis Center
09:05AM 35.4075 -85.9756 321° Northwest 241 277 11,000 -180 Level Memphis Center
09:06AM 35.4614 -86.0236 324° Northwest 241 277 10,700 -780 Descending Memphis Center
09:07AM 35.5175 -86.0769 322° Northwest 246 283 9,500 -1,200 Descending Memphis Center
09:08AM 35.5778 -86.1300 324° Northwest 257 296 8,300 -780 Descending Memphis Center
09:09AM 35.6378 -86.1831 324° Northwest 257 296 8,000 -180 Descending Memphis Center
09:10AM 35.6853 -86.2267 323° Northwest 249 287 8,000 -720 Level Memphis Center
09:11AM 35.7447 -86.2569 338° Northwest 243 280 6,600 -1,080 Descending Memphis Center
09:12AM 35.7994 -86.2772 343° North 222 255 5,900 -360 Descending Memphis Center
09:13AM 35.8458 -86.2928 345° North 187 215 5,900 -180 Level Memphis Center
09:14AM 35.8925 -86.3111 342° North 176 203 5,600 -900 Descending Memphis Center
09:15AM 35.9433 -86.3394 336° Northwest 186 214 4,100 -900 Descending Memphis Center
09:16AM 35.9300 -86.3811 248° West 127 146 3,800 -600 Descending Memphis Center
09:17AM 35.9039 -86.4106 222° Southwest 114 131 2,900 -780 Descending Memphis Center
09:18AM 35.9339 -86.4397 322° Northwest 94 108 2,300 -660 Descending Memphis Center
09:19AM 35.9600 -86.4694 317° Northwest 112 129 1,600 -660 Descending Memphis Center
09:20AM 35.9858 -86.4964 320° Northwest 123 142 1,000 -360 Descending Memphis Center
09:21AM 36.0097 -86.5233 318° Northwest 123 142 900 -120 Descending Memphis Center